Time;durP1;ratioP1;P1;durP2;ratioP2;P2;SDS_P1;SDS_P2;PMS_P1;PMS_P2;Temp;Humidity;BMP_temperature;BMP_pressure;BME280_temperature;BME280_humidity;BME280_pressure;Samples;Min_cycle;Max_cycle;Signal;HPM_P1;HPM_P2
2022/08/10 00:00:19;;;;;;;4.30;2.67;;;;;;;;;;10249660;29;20429;-83
2022/08/10 00:04:48;;;;;;;3.33;2.67;;;;;;;;;;10246785;28;20407;-84
2022/08/10 00:09:50;;;;;;;2.60;2.40;;;;;;;;;;10249109;28;20851;-85
2022/08/10 00:14:54;;;;;;;3.07;2.63;;;;;;;;;;10249006;29;20414;-84
2022/08/10 00:19:55;;;;;;;5.47;2.70;;;;;;;;;;10249035;29;20514;-85
2022/08/10 00:24:57;;;;;;;5.00;2.80;;;;;;;;;;10248720;28;20964;-85
2022/08/10 00:30:00;;;;;;;2.97;2.42;;;;;;;;;;10249044;29;20499;-84
2022/08/10 00:35:02;;;;;;;3.90;2.55;;;;;;;;;;10248264;29;20442;-84
2022/08/10 00:40:05;;;;;;;5.55;2.65;;;;;;;;;;10247489;28;20515;-85
2022/08/10 00:45:09;;;;;;;3.45;2.63;;;;;;;;;;10248011;29;20547;-84
2022/08/10 00:50:11;;;;;;;2.80;2.60;;;;;;;;;;10248176;29;20487;-84
2022/08/10 00:55:13;;;;;;;3.53;2.53;;;;;;;;;;10249558;28;20947;-84
2022/08/10 01:00:17;;;;;;;4.07;2.37;;;;;;;;;;10247550;29;20535;-83
2022/08/10 01:05:20;;;;;;;5.97;2.33;;;;;;;;;;10247684;28;20409;-84
2022/08/10 01:10:33;;;;;;;2.50;2.00;;;;;;;;;;10246852;28;20856;-83
2022/08/10 01:15:52;;;;;;;2.42;2.10;;;;;;;;;;10246947;29;20507;-83
2022/08/10 01:21:20;;;;;;;3.40;2.33;;;;;;;;;;10245235;29;20435;-84
2022/08/10 01:26:39;;;;;;;2.60;2.40;;;;;;;;;;10244662;28;20420;-84
2022/08/10 01:31:48;;;;;;;3.13;1.98;;;;;;;;;;10243115;29;20507;-84
2022/08/10 01:36:53;;;;;;;3.40;2.10;;;;;;;;;;10246755;28;20458;-84
2022/08/10 01:41:59;;;;;;;2.70;2.20;;;;;;;;;;10246228;28;20514;-84
2022/08/10 01:52:30;;;;;;;3.38;2.15;;;;;;;;;;10244779;29;20396;-84
2022/08/10 01:57:34;;;;;;;6.53;2.70;;;;;;;;;;10245551;28;20502;-84
2022/08/10 02:02:38;;;;;;;3.28;2.30;;;;;;;;;;10245380;29;20436;-84
2022/08/10 02:07:41;;;;;;;3.58;2.30;;;;;;;;;;10241857;28;20892;-84
2022/08/10 02:12:46;;;;;;;3.47;2.38;;;;;;;;;;10246110;28;20419;-84
2022/08/10 02:17:53;;;;;;;3.00;2.10;;;;;;;;;;10255078;28;20940;-83
2022/08/10 02:22:58;;;;;;;2.55;2.25;;;;;;;;;;10258636;29;20471;-83
2022/08/10 02:28:03;;;;;;;2.93;2.30;;;;;;;;;;10258480;28;20443;-84
2022/08/10 02:33:06;;;;;;;3.38;2.20;;;;;;;;;;10258857;28;20416;-84
2022/08/10 02:38:10;;;;;;;2.90;2.38;;;;;;;;;;10255672;28;20422;-84
2022/08/10 02:43:20;;;;;;;3.28;2.50;;;;;;;;;;10258156;28;20427;-83
2022/08/10 02:48:31;;;;;;;3.50;2.13;;;;;;;;;;10258554;29;20832;-83
2022/08/10 02:53:41;;;;;;;4.97;2.40;;;;;;;;;;10258464;28;20481;-83
2022/08/10 02:58:45;;;;;;;4.07;2.50;;;;;;;;;;10256169;28;20412;-83
2022/08/10 03:03:52;;;;;;;3.30;2.57;;;;;;;;;;10257049;28;20443;-83
2022/08/10 03:08:56;;;;;;;4.95;2.63;;;;;;;;;;10258330;28;20404;-83
2022/08/10 03:14:01;;;;;;;3.33;2.50;;;;;;;;;;10257814;28;20467;-83
2022/08/10 03:19:07;;;;;;;3.10;2.50;;;;;;;;;;10257677;29;20422;-84
2022/08/10 03:24:10;;;;;;;3.10;2.80;;;;;;;;;;10253811;28;20441;-83
2022/08/10 03:29:12;;;;;;;3.90;2.58;;;;;;;;;;10251987;28;20492;-84
2022/08/10 03:34:17;;;;;;;4.07;2.97;;;;;;;;;;10251860;29;20492;-83
2022/08/10 03:39:19;;;;;;;5.43;2.60;;;;;;;;;;10250698;28;20908;-84
2022/08/10 03:44:25;;;;;;;4.70;2.53;;;;;;;;;;10251253;29;20611;-84
2022/08/10 03:49:30;;;;;;;5.03;2.60;;;;;;;;;;10250775;29;20497;-84
2022/08/10 03:54:33;;;;;;;2.80;2.50;;;;;;;;;;10250080;28;20422;-84
2022/08/10 03:59:36;;;;;;;3.63;2.70;;;;;;;;;;10250109;29;20500;-84
2022/08/10 04:04:40;;;;;;;4.63;3.22;;;;;;;;;;10246568;29;20450;-84
2022/08/10 04:09:42;;;;;;;5.97;3.65;;;;;;;;;;10250163;28;20541;-84
2022/08/10 04:14:43;;;;;;;4.55;3.60;;;;;;;;;;10249727;29;20772;-84
2022/08/10 04:19:51;;;;;;;4.20;3.58;;;;;;;;;;10249265;29;20487;-84
2022/08/10 04:24:59;;;;;;;4.03;3.60;;;;;;;;;;10248525;28;20948;-84
2022/08/10 04:30:01;;;;;;;5.43;3.73;;;;;;;;;;10249071;29;20418;-85
2022/08/10 04:35:09;;;;;;;7.05;3.83;;;;;;;;;;10249105;29;20491;-84
2022/08/10 04:40:12;;;;;;;5.10;3.57;;;;;;;;;;10246649;28;20424;-85
2022/08/10 04:45:16;;;;;;;5.63;3.25;;;;;;;;;;10246211;29;20416;-84
2022/08/10 04:50:19;;;;;;;4.35;3.03;;;;;;;;;;10247300;29;20417;-84
2022/08/10 04:55:21;;;;;;;5.13;3.60;;;;;;;;;;10247705;28;20498;-84
2022/08/10 05:00:23;;;;;;;4.90;3.47;;;;;;;;;;10245147;29;20505;-80
2022/08/10 05:05:26;;;;;;;5.30;3.65;;;;;;;;;;10247252;29;20424;-84
2022/08/10 05:10:28;;;;;;;5.43;3.60;;;;;;;;;;10245746;28;20912;-84
2022/08/10 05:15:30;;;;;;;5.10;3.73;;;;;;;;;;10244774;29;20511;-84
2022/08/10 05:20:33;;;;;;;6.45;4.03;;;;;;;;;;10245001;28;20434;-82
2022/08/10 05:25:35;;;;;;;5.68;3.45;;;;;;;;;;10263126;28;20467;-85
2022/08/10 05:30:37;;;;;;;5.50;2.97;;;;;;;;;;10248970;28;20440;-84
2022/08/10 05:35:40;;;;;;;4.33;2.70;;;;;;;;;;10241589;29;20442;-84
2022/08/10 05:40:43;;;;;;;2.70;2.47;;;;;;;;;;10244629;28;20419;-84
2022/08/10 05:45:46;;;;;;;3.55;2.20;;;;;;;;;;10245331;29;20415;-84
2022/08/10 05:50:49;;;;;;;3.70;2.60;;;;;;;;;;10244201;28;20404;-84
2022/08/10 05:55:51;;;;;;;4.30;2.50;;;;;;;;;;10244457;28;20435;-84
2022/08/10 06:00:57;;;;;;;3.97;2.67;;;;;;;;;;10244486;29;20534;-84
2022/08/10 06:06:02;;;;;;;5.03;2.40;;;;;;;;;;10244798;29;20499;-84
2022/08/10 06:11:06;;;;;;;2.65;2.40;;;;;;;;;;10244520;28;20427;-84
2022/08/10 06:16:11;;;;;;;4.43;2.60;;;;;;;;;;10244209;29;20491;-83
2022/08/10 06:21:19;;;;;;;3.40;2.30;;;;;;;;;;10238404;29;20463;-82
2022/08/10 06:26:22;;;;;;;5.63;2.30;;;;;;;;;;10237963;28;20979;-82
2022/08/10 06:31:26;;;;;;;4.68;2.40;;;;;;;;;;10239193;29;20976;-83
2022/08/10 06:36:30;;;;;;;4.70;2.00;;;;;;;;;;10239212;29;20796;-83
2022/08/10 06:41:35;;;;;;;8.30;2.00;;;;;;;;;;10239134;28;20519;-81
2022/08/10 06:46:40;;;;;;;2.97;1.98;;;;;;;;;;10239637;29;20400;-82
2022/08/10 06:51:47;;;;;;;2.90;1.80;;;;;;;;;;10235417;29;20415;-83
2022/08/10 06:56:51;;;;;;;3.53;1.77;;;;;;;;;;10237933;28;20428;-82
2022/08/10 07:01:59;;;;;;;4.22;2.00;;;;;;;;;;10240368;28;20431;-83
2022/08/10 07:07:06;;;;;;;5.33;1.70;;;;;;;;;;10245119;29;20427;-80
2022/08/10 07:12:10;;;;;;;2.53;1.70;;;;;;;;;;10245319;28;20649;-82
2022/08/10 07:17:13;;;;;;;1.65;1.55;;;;;;;;;;10247109;29;20408;-82
2022/08/10 07:22:18;;;;;;;2.80;1.90;;;;;;;;;;10246028;29;20428;-82
2022/08/10 07:27:23;;;;;;;4.53;1.90;;;;;;;;;;10248443;28;20416;-83
2022/08/10 07:32:26;;;;;;;2.30;1.50;;;;;;;;;;10245405;29;20821;-82
2022/08/10 07:37:31;;;;;;;3.20;1.80;;;;;;;;;;10245676;29;20415;-82
2022/08/10 07:42:33;;;;;;;2.53;1.65;;;;;;;;;;10238033;29;20454;-82
2022/08/10 07:47:41;;;;;;;3.63;2.03;;;;;;;;;;10247312;29;20750;-82
2022/08/10 07:52:47;;;;;;;4.40;2.00;;;;;;;;;;10243772;29;20498;-83
2022/08/10 07:57:54;;;;;;;3.28;2.00;;;;;;;;;;10246700;28;20502;-82
2022/08/10 08:02:58;;;;;;;5.90;2.17;;;;;;;;;;10246524;29;20908;-82
2022/08/10 08:08:03;;;;;;;3.60;1.92;;;;;;;;;;10246594;29;20418;-82
2022/08/10 08:13:05;;;;;;;2.60;1.90;;;;;;;;;;10245955;28;20422;-82
2022/08/10 08:18:09;;;;;;;3.22;1.73;;;;;;;;;;10244543;29;20404;-82
2022/08/10 08:23:13;;;;;;;3.25;1.73;;;;;;;;;;10241264;29;20439;-82
2022/08/10 08:28:16;;;;;;;3.92;1.90;;;;;;;;;;10242761;28;20424;-82
2022/08/10 08:33:18;;;;;;;5.15;2.00;;;;;;;;;;10242691;29;20508;-83
2022/08/10 08:38:24;;;;;;;6.80;1.95;;;;;;;;;;10243696;28;20412;-83
2022/08/10 08:43:40;;;;;;;3.03;1.60;;;;;;;;;;10243697;29;20435;-83
2022/08/10 08:49:08;;;;;;;1.60;1.50;;;;;;;;;;10240236;29;20419;-83
2022/08/10 08:54:22;;;;;;;3.90;1.45;;;;;;;;;;10242111;28;20415;-83
2022/08/10 08:59:37;;;;;;;2.50;1.60;;;;;;;;;;10241391;29;20419;-84
2022/08/10 09:05:00;;;;;;;1.73;1.20;;;;;;;;;;10239356;29;20851;-83
2022/08/10 09:10:14;;;;;;;4.38;1.55;;;;;;;;;;10241487;28;21048;-83
2022/08/10 09:15:26;;;;;;;1.88;1.50;;;;;;;;;;10239812;29;20504;-83
2022/08/10 09:20:34;;;;;;;2.97;1.35;;;;;;;;;;10238158;29;20417;-83
2022/08/10 09:25:44;;;;;;;2.55;1.40;;;;;;;;;;10228669;28;20434;-83
2022/08/10 09:30:51;;;;;;;2.55;1.70;;;;;;;;;;10236233;28;20416;-83
2022/08/10 09:35:57;;;;;;;2.85;1.58;;;;;;;;;;10235318;29;20419;-83
2022/08/10 09:41:11;;;;;;;2.00;1.33;;;;;;;;;;10235849;28;20537;-83
2022/08/10 09:46:22;;;;;;;1.77;1.40;;;;;;;;;;10235711;29;20412;-83
2022/08/10 09:51:31;;;;;;;2.88;1.50;;;;;;;;;;10235669;28;20411;-83
2022/08/10 09:56:47;;;;;;;2.93;1.20;;;;;;;;;;10236338;28;20503;-83
2022/08/10 10:01:55;;;;;;;1.48;1.33;;;;;;;;;;10233930;28;20635;-83
2022/08/10 10:06:59;;;;;;;1.80;1.52;;;;;;;;;;10233787;29;20426;-83
2022/08/10 10:12:16;;;;;;;1.63;1.20;;;;;;;;;;10231097;28;20896;-83
2022/08/10 10:17:25;;;;;;;1.67;1.50;;;;;;;;;;10235878;29;20781;-83
2022/08/10 10:22:50;;;;;;;2.25;1.63;;;;;;;;;;10236060;28;20943;-82
2022/08/10 10:28:12;;;;;;;2.03;1.52;;;;;;;;;;10236173;28;20559;-83
2022/08/10 10:33:18;;;;;;;2.63;1.70;;;;;;;;;;10233106;29;20765;-83
2022/08/10 10:38:25;;;;;;;1.80;1.60;;;;;;;;;;10239859;28;20506;-83
2022/08/10 10:43:42;;;;;;;3.13;1.60;;;;;;;;;;10243130;28;20841;-83
2022/08/10 10:48:58;;;;;;;4.35;1.70;;;;;;;;;;10243568;28;20828;-82
2022/08/10 10:54:09;;;;;;;1.67;1.58;;;;;;;;;;10242742;29;20431;-81
2022/08/10 10:59:24;;;;;;;3.17;1.50;;;;;;;;;;10243845;28;20502;-83
2022/08/10 11:04:35;;;;;;;2.47;1.47;;;;;;;;;;10239685;28;20446;-82
2022/08/10 11:09:42;;;;;;;2.57;1.30;;;;;;;;;;10236875;28;20427;-83
2022/08/10 11:14:52;;;;;;;5.03;2.10;;;;;;;;;;10233914;29;20411;-83
2022/08/10 11:20:03;;;;;;;1.90;1.40;;;;;;;;;;10235059;28;20411;-83
2022/08/10 11:25:12;;;;;;;2.05;1.30;;;;;;;;;;10240423;28;20428;-83
2022/08/10 11:30:20;;;;;;;1.50;1.40;;;;;;;;;;10236582;28;20475;-83
2022/08/10 11:35:27;;;;;;;2.50;1.40;;;;;;;;;;10237110;29;20786;-83
2022/08/10 11:40:36;;;;;;;1.63;1.30;;;;;;;;;;10235656;28;20426;-82
2022/08/10 11:45:42;;;;;;;3.42;1.58;;;;;;;;;;10240773;28;20789;-82
2022/08/10 11:50:50;;;;;;;2.25;1.45;;;;;;;;;;10236735;28;20440;-82
2022/08/10 11:55:55;;;;;;;1.52;1.33;;;;;;;;;;10236054;29;20412;-82
2022/08/10 12:01:02;;;;;;;1.63;1.30;;;;;;;;;;10240138;28;20412;-83
2022/08/10 12:06:07;;;;;;;2.30;1.50;;;;;;;;;;10238034;29;20603;-82
2022/08/10 12:11:10;;;;;;;3.10;1.70;;;;;;;;;;10236315;28;20420;-83
2022/08/10 12:16:18;;;;;;;1.77;1.42;;;;;;;;;;10237593;28;20570;-83
2022/08/10 12:21:22;;;;;;;2.50;1.60;;;;;;;;;;10239636;29;20880;-83
2022/08/10 12:26:28;;;;;;;2.55;1.40;;;;;;;;;;10240637;29;20443;-83
2022/08/10 12:31:38;;;;;;;2.45;1.60;;;;;;;;;;10241809;29;20491;-83
2022/08/10 12:36:44;;;;;;;1.40;1.30;;;;;;;;;;10240344;29;20404;-84
2022/08/10 12:41:55;;;;;;;1.40;1.30;;;;;;;;;;10243892;28;21619;-84
2022/08/10 12:47:03;;;;;;;2.10;1.55;;;;;;;;;;10244490;29;20419;-83
2022/08/10 12:52:14;;;;;;;2.43;1.33;;;;;;;;;;10237201;29;20786;-83
2022/08/10 12:57:19;;;;;;;2.22;1.40;;;;;;;;;;10239171;29;20430;-83
2022/08/10 13:02:25;;;;;;;2.13;1.20;;;;;;;;;;10242983;28;20530;-84
2022/08/10 13:07:31;;;;;;;1.50;1.30;;;;;;;;;;10241139;28;20418;-84
2022/08/10 13:12:37;;;;;;;1.93;1.50;;;;;;;;;;10242097;28;20502;-83
2022/08/10 13:17:41;;;;;;;1.50;1.40;;;;;;;;;;10242342;29;20475;-84
2022/08/10 13:22:47;;;;;;;2.28;1.40;;;;;;;;;;10238581;29;20434;-83
2022/08/10 13:27:50;;;;;;;1.30;1.20;;;;;;;;;;10240581;28;20411;-83
2022/08/10 13:32:54;;;;;;;2.05;1.40;;;;;;;;;;10234463;29;20409;-81
2022/08/10 13:37:58;;;;;;;1.23;1.13;;;;;;;;;;10238488;28;20515;-82
2022/08/10 13:43:03;;;;;;;2.60;1.20;;;;;;;;;;10224529;28;20864;-83
2022/08/10 13:48:13;;;;;;;1.15;1.10;;;;;;;;;;10226782;29;20411;-83
2022/08/10 13:53:17;;;;;;;2.15;1.20;;;;;;;;;;10236255;29;20510;-83
2022/08/10 13:58:24;;;;;;;1.80;1.30;;;;;;;;;;10241959;28;20908;-96
2022/08/10 14:03:34;;;;;;;3.50;1.30;;;;;;;;;;10255365;23;20437;-83
2022/08/10 14:08:37;;;;;;;1.70;1.20;;;;;;;;;;10196033;29;20413;-83
2022/08/10 14:13:45;;;;;;;1.10;1.00;;;;;;;;;;10179132;29;20538;-84
2022/08/10 14:18:53;;;;;;;1.08;1.00;;;;;;;;;;10169826;29;20419;-84
2022/08/10 14:23:55;;;;;;;1.40;1.30;;;;;;;;;;10172812;29;20503;-84
2022/08/10 14:29:02;;;;;;;2.17;1.20;;;;;;;;;;10179005;29;20424;-83
2022/08/10 14:34:08;;;;;;;1.70;1.00;;;;;;;;;;10183105;29;20505;-83
2022/08/10 14:39:19;;;;;;;1.70;1.10;;;;;;;;;;10183599;29;20430;-84
2022/08/10 14:44:21;;;;;;;1.55;1.10;;;;;;;;;;10188934;29;20429;-85
2022/08/10 14:49:25;;;;;;;2.33;1.20;;;;;;;;;;10191980;29;20409;-84
2022/08/10 14:54:29;;;;;;;2.40;1.30;;;;;;;;;;10174737;29;20512;-84
2022/08/10 14:59:32;;;;;;;1.27;1.02;;;;;;;;;;10175904;29;20443;-83
2022/08/10 15:04:37;;;;;;;1.15;0.90;;;;;;;;;;10187522;29;20432;-84
2022/08/10 15:09:41;;;;;;;2.08;1.17;;;;;;;;;;10183548;29;20421;-84
2022/08/10 15:14:46;;;;;;;1.73;1.08;;;;;;;;;;10191491;29;20434;-84
2022/08/10 15:19:53;;;;;;;0.80;0.80;;;;;;;;;;10191242;29;20505;-85
2022/08/10 15:25:04;;;;;;;1.33;1.00;;;;;;;;;;10193925;29;20435;-85
2022/08/10 15:30:09;;;;;;;1.13;0.90;;;;;;;;;;10198832;29;20418;-85
2022/08/10 15:40:38;;;;;;;1.65;0.82;;;;;;;;;;10175480;29;20502;-84
2022/08/10 15:45:41;;;;;;;1.57;0.90;;;;;;;;;;10183533;29;20528;-84
2022/08/10 15:50:47;;;;;;;1.30;0.90;;;;;;;;;;10186945;29;20924;-83
2022/08/10 15:55:52;;;;;;;1.17;0.90;;;;;;;;;;10173734;29;20419;-85
2022/08/10 16:00:57;;;;;;;0.85;0.82;;;;;;;;;;10170347;29;20491;-83
2022/08/10 16:06:02;;;;;;;1.20;0.90;;;;;;;;;;10168239;29;20530;-90
2022/08/10 16:11:08;;;;;;;0.80;0.80;;;;;;;;;;10155783;29;20433;-90
2022/08/10 16:16:14;;;;;;;1.48;0.80;;;;;;;;;;10165041;29;20864;-89
2022/08/10 16:21:20;;;;;;;0.90;0.90;;;;;;;;;;10186690;29;20448;-90
2022/08/10 16:26:26;;;;;;;1.60;0.80;;;;;;;;;;10176942;29;20444;-89
2022/08/10 16:31:32;;;;;;;2.50;1.00;;;;;;;;;;10157649;29;20411;-91
2022/08/10 16:36:42;;;;;;;1.92;0.90;;;;;;;;;;10153984;28;20503;-89
2022/08/10 16:41:46;;;;;;;1.30;0.80;;;;;;;;;;10156138;29;20909;-89
2022/08/10 16:46:49;;;;;;;2.45;0.80;;;;;;;;;;10159009;29;20546;-91
2022/08/10 16:52:02;;;;;;;1.77;1.10;;;;;;;;;;10155570;29;20459;-92
2022/08/10 16:57:05;;;;;;;1.50;1.00;;;;;;;;;;10148682;29;20731;-90
2022/08/10 17:02:17;;;;;;;3.20;0.80;;;;;;;;;;10154777;29;20584;-92
2022/08/10 17:07:27;;;;;;;1.52;0.90;;;;;;;;;;10155309;29;20936;-91
2022/08/10 17:12:31;;;;;;;1.35;0.80;;;;;;;;;;10154252;29;20420;-77
2022/08/10 17:17:39;;;;;;;1.70;0.80;;;;;;;;;;10165521;29;20438;-92
2022/08/10 17:22:43;;;;;;;1.17;0.83;;;;;;;;;;10163128;29;20923;-92
2022/08/10 17:27:53;;;;;;;1.90;0.88;;;;;;;;;;10165606;29;20891;-91
2022/08/10 17:33:04;;;;;;;1.50;0.90;;;;;;;;;;10173874;29;20486;-92
2022/08/10 17:38:17;;;;;;;2.30;0.90;;;;;;;;;;10170502;29;20515;-90
2022/08/10 17:43:37;;;;;;;3.38;1.00;;;;;;;;;;10176912;29;20431;-94
2022/08/10 17:48:42;;;;;;;1.27;1.10;;;;;;;;;;10163312;29;20460;-90
2022/08/10 17:53:50;;;;;;;1.38;1.10;;;;;;;;;;10172835;29;20427;-90
2022/08/10 17:58:58;;;;;;;2.42;1.20;;;;;;;;;;10174780;29;20416;-91
2022/08/10 18:04:02;;;;;;;1.50;1.13;;;;;;;;;;10176530;29;20860;-89
2022/08/10 18:09:11;;;;;;;2.30;1.85;;;;;;;;;;10184947;29;20489;-90
2022/08/10 18:14:21;;;;;;;4.03;1.90;;;;;;;;;;10182724;29;20461;-90
2022/08/10 18:19:29;;;;;;;3.22;1.48;;;;;;;;;;10178563;29;20507;-89
2022/08/10 18:24:41;;;;;;;2.78;1.67;;;;;;;;;;10173701;29;20544;-90
2022/08/10 18:29:56;;;;;;;2.28;1.70;;;;;;;;;;10164376;29;20424;-90
2022/08/10 18:35:08;;;;;;;5.65;2.17;;;;;;;;;;10173004;29;20450;-89
2022/08/10 18:40:15;;;;;;;4.60;2.45;;;;;;;;;;10172557;29;20504;-89
2022/08/10 18:45:22;;;;;;;5.40;2.63;;;;;;;;;;10171890;29;20459;-90
2022/08/10 18:50:28;;;;;;;3.72;2.60;;;;;;;;;;10166890;29;20411;-92
2022/08/10 18:55:39;;;;;;;2.90;2.30;;;;;;;;;;10173762;29;21411;-91
2022/08/10 19:00:56;;;;;;;4.45;2.58;;;;;;;;;;10174704;29;20408;-91
2022/08/10 19:06:22;;;;;;;3.10;2.80;;;;;;;;;;10171357;29;20796;-90
2022/08/10 19:11:46;;;;;;;4.43;2.53;;;;;;;;;;10172006;29;20427;-90
2022/08/10 19:16:58;;;;;;;3.80;2.60;;;;;;;;;;10181399;29;20423;-92
2022/08/10 19:22:06;;;;;;;4.30;2.60;;;;;;;;;;10183107;29;20869;-92
2022/08/10 19:27:26;;;;;;;5.25;2.67;;;;;;;;;;10176068;29;20437;-89
2022/08/10 19:32:37;;;;;;;4.00;2.60;;;;;;;;;;10171799;29;20451;-89
2022/08/10 19:37:59;;;;;;;4.47;2.57;;;;;;;;;;10174670;29;20794;-90
2022/08/10 19:43:10;;;;;;;4.93;2.60;;;;;;;;;;10171847;29;20479;-92
2022/08/10 19:48:23;;;;;;;6.17;2.70;;;;;;;;;;10174523;29;20412;-91
2022/08/10 19:53:34;;;;;;;4.97;2.60;;;;;;;;;;10177215;29;20458;-89
2022/08/10 19:58:45;;;;;;;4.03;2.80;;;;;;;;;;10208830;29;20400;-91
2022/08/10 20:03:53;;;;;;;4.05;2.75;;;;;;;;;;10198880;29;20423;-89
2022/08/10 20:09:05;;;;;;;5.87;2.70;;;;;;;;;;10161009;29;20420;-89
2022/08/10 20:14:17;;;;;;;7.38;2.75;;;;;;;;;;10180366;29;20481;-90
2022/08/10 20:19:29;;;;;;;6.47;2.53;;;;;;;;;;10177373;29;20456;-91
2022/08/10 20:24:38;;;;;;;4.63;2.42;;;;;;;;;;10174300;29;20441;-91
2022/08/10 20:29:47;;;;;;;5.22;2.70;;;;;;;;;;10182908;29;20453;-91
2022/08/10 20:35:02;;;;;;;5.20;2.40;;;;;;;;;;10175030;29;20415;-90
2022/08/10 20:40:12;;;;;;;3.70;2.60;;;;;;;;;;10185857;29;20913;-90
2022/08/10 20:45:25;;;;;;;3.20;2.20;;;;;;;;;;10178237;29;20465;-91
2022/08/10 20:50:35;;;;;;;4.00;2.43;;;;;;;;;;10179484;29;20420;-90
2022/08/10 20:55:49;;;;;;;5.68;2.40;;;;;;;;;;10168476;29;20445;-92
2022/08/10 21:07:00;;;;;;;3.65;2.30;;;;;;;;;;10548815;27;20386;-89
2022/08/10 21:12:21;;;;;;;3.05;2.05;;;;;;;;;;10470743;28;20410;-91
2022/08/10 21:17:46;;;;;;;5.15;2.30;;;;;;;;;;10460355;28;20487;-90
2022/08/10 21:22:51;;;;;;;2.73;1.97;;;;;;;;;;10453667;28;20473;-91
2022/08/10 23:00:11;;;;;;;4.35;1.90;;;;;;;;;;10492381;28;20398;-90
2022/08/10 23:05:16;;;;;;;3.00;2.00;;;;;;;;;;10491247;28;20842;-90
2022/08/10 23:10:21;;;;;;;4.73;1.90;;;;;;;;;;10494209;28;20845;-91
2022/08/10 23:20:52;;;;;;;4.50;2.40;;;;;;;;;;10492691;28;20390;-92
2022/08/10 23:25:57;;;;;;;2.67;2.10;;;;;;;;;;10489237;28;21081;-89
2022/08/10 23:31:01;;;;;;;2.65;2.00;;;;;;;;;;10511555;28;20410;-89
2022/08/10 23:36:05;;;;;;;4.73;2.10;;;;;;;;;;10526122;28;20479;-90
2022/08/10 23:41:09;;;;;;;3.22;1.75;;;;;;;;;;10489670;28;20454;-91
2022/08/10 23:46:14;;;;;;;4.18;2.22;;;;;;;;;;10486329;28;20475;-91
2022/08/10 23:51:18;;;;;;;5.07;2.08;;;;;;;;;;10489526;28;20432;-89
2022/08/10 23:56:22;;;;;;;2.92;2.00;;;;;;;;;;10488025;28;20425;-92
